createdAt,value
2018-02-07T00:01:02.329Z,5.76
2018-02-07T00:03:30.825Z,5.73
2018-02-07T00:05:59.377Z,5.98
2018-02-07T00:08:27.901Z,6.06
2018-02-07T00:10:56.370Z,5.85
2018-02-07T00:13:24.929Z,6.05
2018-02-07T00:15:53.417Z,6.07
2018-02-07T00:18:21.918Z,6.14
2018-02-07T00:20:50.462Z,6.19
2018-02-07T00:23:18.925Z,6.21
2018-02-07T00:25:47.439Z,6.24
2018-02-07T00:28:15.923Z,6.27
2018-02-07T00:30:44.393Z,6.04
2018-02-07T00:33:12.904Z,6.07
2018-02-07T00:35:41.388Z,6.09
2018-02-07T00:38:09.881Z,6.13
2018-02-07T00:40:38.381Z,6.13
2018-02-07T00:43:06.867Z,6.06
2018-02-07T00:45:35.369Z,6.10
2018-02-07T00:48:03.857Z,6.10
2018-02-07T00:50:32.361Z,5.96
2018-02-07T00:53:00.885Z,6.06
2018-02-07T00:55:29.363Z,6.09
2018-02-07T00:57:57.871Z,6.12
2018-02-07T01:00:26.407Z,6.08
2018-02-07T01:02:54.867Z,5.88
2018-02-07T01:05:23.361Z,6.08
2018-02-07T01:07:51.889Z,5.72
2018-02-07T01:10:20.389Z,5.93
2018-02-07T01:12:48.913Z,5.95
2018-02-07T01:15:17.415Z,5.80
2018-02-07T01:17:45.934Z,5.63
2018-02-07T01:20:14.397Z,5.68
2018-02-07T01:22:42.956Z,5.80
2018-02-07T01:25:11.484Z,5.84
2018-02-07T01:27:39.982Z,5.77
2018-02-07T01:30:08.493Z,5.60
2018-02-07T01:32:36.995Z,5.67
2018-02-07T01:35:05.465Z,5.73
2018-02-07T01:37:33.977Z,5.76
2018-02-07T01:40:02.479Z,5.74
2018-02-07T01:42:31.053Z,5.67
2018-02-07T01:44:59.566Z,5.65
2018-02-07T01:47:28.046Z,5.69
2018-02-07T01:49:56.562Z,5.71
2018-02-07T01:52:25.106Z,5.67
2018-02-07T01:54:53.578Z,5.72
2018-02-07T01:57:22.046Z,5.71
2018-02-07T01:59:50.545Z,5.73
2018-02-07T02:02:19.009Z,5.76
2018-02-07T02:04:47.541Z,5.78
2018-02-07T02:07:16.037Z,5.61
2018-02-07T02:09:44.583Z,5.67
2018-02-07T02:12:13.046Z,5.58
2018-02-07T02:14:41.577Z,5.63
2018-02-07T02:17:10.087Z,5.54
2018-02-07T02:19:38.637Z,5.54
2018-02-07T02:22:07.105Z,5.50
2018-02-07T02:24:35.562Z,5.51
2018-02-07T02:27:04.080Z,5.53
2018-02-07T02:29:32.542Z,5.44
2018-02-07T02:32:01.055Z,5.43
2018-02-07T02:34:29.578Z,5.49
2018-02-07T02:36:58.098Z,5.24
2018-02-07T02:39:26.913Z,5.32
2018-02-07T02:41:55.381Z,4.93
2018-02-07T02:44:23.906Z,4.95
2018-02-07T02:46:52.366Z,5.16
2018-02-07T02:49:20.867Z,5.22
2018-02-07T02:51:49.332Z,5.13
2018-02-07T02:54:17.832Z,4.99
2018-02-07T02:56:46.333Z,5.16
2018-02-07T02:59:14.797Z,5.13
2018-02-07T03:01:43.299Z,5.31
2018-02-07T03:04:11.777Z,5.38
2018-02-07T03:06:40.285Z,5.07
2018-02-07T03:09:08.789Z,5.27
2018-02-07T03:11:37.289Z,5.36
2018-02-07T03:14:05.741Z,5.37
2018-02-07T03:16:34.257Z,5.43
2018-02-07T03:19:02.749Z,5.38
2018-02-07T03:21:31.235Z,4.92
2018-02-07T03:23:59.745Z,5.21
2018-02-07T03:26:28.261Z,5.28
2018-02-07T03:28:56.773Z,5.25
2018-02-07T03:31:25.219Z,5.26
2018-02-07T03:33:53.690Z,5.13
2018-02-07T03:36:22.206Z,5.18
2018-02-07T03:38:50.676Z,5.31
2018-02-07T03:41:19.173Z,5.32
2018-02-07T03:43:47.633Z,5.26
2018-02-07T03:46:16.150Z,5.29
2018-02-07T03:48:44.659Z,5.26
2018-02-07T03:51:13.130Z,5.23
2018-02-07T03:53:41.625Z,5.29
2018-02-07T03:56:10.096Z,5.32
2018-02-07T03:58:38.621Z,5.23
2018-02-07T04:01:07.084Z,5.33
2018-02-07T04:03:35.561Z,5.33
2018-02-07T04:06:04.058Z,5.26
2018-02-07T04:08:32.569Z,5.23
2018-02-07T04:11:01.033Z,5.29
2018-02-07T04:13:29.517Z,5.33
2018-02-07T04:15:58.022Z,5.12
2018-02-07T04:18:26.481Z,5.33
2018-02-07T04:20:54.942Z,5.36
2018-02-07T04:23:23.437Z,5.22
2018-02-07T04:25:51.909Z,5.33
2018-02-07T04:28:20.414Z,5.41
2018-02-07T04:30:48.873Z,5.46
2018-02-07T04:33:17.369Z,5.43
2018-02-07T04:35:46.824Z,5.48
2018-02-07T04:38:15.315Z,5.43
2018-02-07T04:40:43.826Z,5.55
2018-02-07T04:43:12.281Z,5.50
2018-02-07T04:45:40.782Z,5.52
2018-02-07T04:48:09.247Z,5.51
2018-02-07T04:50:37.741Z,5.43
2018-02-07T04:53:06.218Z,5.48
2018-02-07T04:55:34.713Z,5.43
2018-02-07T04:58:03.189Z,5.51
2018-02-07T05:00:31.697Z,5.53
2018-02-07T05:03:00.175Z,5.55
2018-02-07T05:05:28.620Z,5.39
2018-02-07T05:07:57.131Z,5.44
2018-02-07T05:10:25.610Z,5.47
2018-02-07T05:12:54.121Z,5.44
2018-02-07T05:15:22.562Z,5.42
2018-02-07T05:17:51.031Z,5.26
2018-02-07T05:20:19.525Z,5.20
2018-02-07T05:22:48.002Z,5.24
2018-02-07T05:25:16.472Z,5.26
2018-02-07T05:27:44.990Z,5.28
2018-02-07T05:30:13.448Z,5.31
2018-02-07T05:32:41.913Z,5.33
2018-02-07T05:35:10.424Z,5.35
2018-02-07T05:37:38.932Z,5.37
2018-02-07T05:40:07.407Z,5.35
2018-02-07T05:42:35.909Z,5.26
2018-02-07T05:45:04.429Z,5.24
2018-02-07T05:47:32.889Z,5.19
2018-02-07T05:50:01.419Z,5.23
2018-02-07T05:52:29.885Z,5.18
2018-02-07T05:54:58.386Z,5.20
2018-02-07T05:57:26.893Z,5.23
2018-02-07T05:59:55.409Z,5.24
2018-02-07T06:02:23.881Z,5.06
2018-02-07T06:04:52.381Z,5.11
2018-02-07T06:07:20.902Z,5.12
2018-02-07T06:09:49.387Z,4.97
2018-02-07T06:12:17.891Z,5.06
2018-02-07T06:14:46.369Z,5.01
2018-02-07T06:17:14.870Z,5.10
2018-02-07T06:19:43.334Z,5.06
2018-02-07T06:22:11.910Z,5.04
2018-02-07T06:24:40.429Z,5.00
2018-02-07T06:27:08.926Z,5.06
2018-02-07T06:29:37.434Z,5.14
2018-02-07T06:32:06.031Z,5.13
2018-02-07T06:34:34.499Z,5.16
2018-02-07T06:37:02.961Z,5.18
2018-02-07T06:39:31.466Z,5.29
2018-02-07T06:42:00.006Z,5.01
2018-02-07T06:44:28.553Z,4.98
2018-02-07T06:46:57.046Z,5.30
2018-02-07T06:49:25.529Z,5.40
2018-02-07T06:51:54.082Z,5.41
2018-02-07T06:54:22.591Z,5.45
2018-02-07T06:56:51.106Z,5.31
2018-02-07T06:59:19.638Z,5.39
2018-02-07T07:01:48.098Z,5.34
2018-02-07T07:04:16.652Z,5.31
2018-02-07T07:06:45.162Z,5.41
2018-02-07T07:09:13.666Z,5.56
2018-02-07T07:11:42.150Z,5.69
2018-02-07T07:14:10.664Z,5.67
2018-02-07T07:16:39.233Z,5.77
2018-02-07T07:19:07.696Z,5.82
2018-02-07T07:21:36.202Z,5.88
2018-02-07T07:24:04.690Z,5.90
2018-02-07T07:26:33.154Z,5.90
2018-02-07T07:29:01.650Z,5.96
2018-02-07T07:31:30.121Z,6.08
2018-02-07T07:33:58.649Z,6.07
2018-02-07T07:36:27.134Z,6.06
2018-02-07T07:38:55.677Z,5.97
2018-02-07T07:41:24.146Z,6.03
2018-02-07T07:43:52.685Z,5.82
2018-02-07T07:46:21.285Z,5.86
2018-02-07T07:48:49.781Z,5.88
2018-02-07T07:51:18.324Z,5.98
2018-02-07T07:53:46.771Z,5.90
2018-02-07T07:56:15.246Z,6.08
2018-02-07T07:58:43.746Z,6.06
2018-02-07T08:01:12.206Z,5.99
2018-02-07T08:03:40.714Z,6.09
2018-02-07T08:06:09.174Z,6.17
2018-02-07T08:08:37.676Z,6.07
2018-02-07T08:11:06.182Z,6.13
2018-02-07T08:13:34.649Z,6.16
2018-02-07T08:16:03.151Z,6.36
2018-02-07T08:18:31.673Z,6.37
2018-02-07T08:21:00.182Z,6.33
2018-02-07T08:23:28.646Z,6.63
2018-02-07T08:25:57.165Z,6.75
2018-02-07T08:28:25.637Z,6.71
2018-02-07T08:30:54.129Z,6.98
2018-02-07T08:33:22.633Z,7.13
2018-02-07T08:35:51.109Z,7.22
2018-02-07T08:38:19.640Z,7.20
2018-02-07T08:40:48.157Z,7.28
2018-02-07T08:43:16.617Z,7.27
2018-02-07T08:45:45.073Z,7.21
2018-02-07T08:48:13.568Z,7.20
2018-02-07T08:50:42.037Z,7.38
2018-02-07T08:53:10.572Z,6.97
2018-02-07T08:55:39.124Z,7.23
2018-02-07T08:58:07.708Z,7.23
2018-02-07T09:00:36.219Z,7.25
2018-02-07T09:03:04.763Z,7.19
2018-02-07T09:05:33.263Z,7.12
2018-02-07T09:08:01.742Z,7.16
2018-02-07T09:10:30.226Z,6.87
2018-02-07T09:12:58.721Z,7.04
2018-02-07T09:15:27.210Z,6.79
2018-02-07T09:17:55.769Z,6.50
2018-02-07T09:20:24.229Z,6.55
2018-02-07T09:22:52.744Z,6.91
2018-02-07T09:25:21.309Z,7.09
2018-02-07T09:27:49.849Z,6.93
2018-02-07T09:30:18.483Z,7.02
2018-02-07T09:32:46.985Z,7.16
2018-02-07T09:35:15.451Z,6.83
2018-02-07T09:37:43.986Z,6.98
2018-02-07T09:40:12.431Z,6.95
2018-02-07T09:42:40.973Z,6.98
2018-02-07T09:45:09.525Z,6.72
2018-02-07T09:47:38.018Z,7.08
2018-02-07T09:50:06.474Z,7.05
2018-02-07T09:52:34.991Z,6.91
2018-02-07T09:55:03.471Z,6.42
2018-02-07T09:57:31.942Z,6.59
2018-02-07T10:00:00.448Z,6.57
2018-02-07T10:02:28.991Z,6.87
2018-02-07T10:04:57.491Z,6.88
2018-02-07T10:07:26.012Z,7.17
2018-02-07T10:09:54.486Z,7.33
2018-02-07T10:12:22.972Z,7.28
2018-02-07T10:14:51.482Z,7.37
2018-02-07T10:17:19.994Z,7.56
2018-02-07T10:19:48.497Z,7.59
2018-02-07T10:22:16.974Z,7.55
2018-02-07T10:24:45.438Z,7.37
2018-02-07T10:27:13.945Z,7.60
2018-02-07T10:29:42.458Z,7.76
2018-02-07T10:32:10.928Z,7.84
2018-02-07T10:34:39.440Z,7.94
2018-02-07T10:37:07.958Z,8.03
2018-02-07T10:39:36.438Z,8.08
2018-02-07T10:42:04.905Z,8.11
2018-02-07T10:44:33.409Z,8.12
2018-02-07T10:47:01.879Z,8.08
2018-02-07T10:49:30.386Z,8.14
2018-02-07T10:51:58.871Z,8.14
2018-02-07T10:54:27.387Z,7.90
2018-02-07T10:56:55.861Z,8.34
2018-02-07T10:59:24.334Z,8.13
2018-02-07T11:01:52.809Z,7.83
2018-02-07T11:04:21.361Z,8.16
2018-02-07T11:06:49.830Z,8.29
2018-02-07T11:09:18.329Z,8.36
2018-02-07T11:11:46.810Z,8.35
2018-02-07T11:14:15.317Z,8.27
2018-02-07T11:16:43.809Z,8.43
2018-02-07T11:19:12.291Z,8.52
2018-02-07T11:21:40.794Z,8.48
2018-02-07T11:24:09.264Z,8.62
2018-02-07T11:26:37.781Z,8.61
2018-02-07T11:29:06.249Z,8.41
2018-02-07T11:31:34.732Z,8.49
2018-02-07T11:34:03.345Z,7.98
2018-02-07T11:36:31.813Z,8.06
2018-02-07T11:39:00.304Z,7.61
2018-02-07T11:41:28.863Z,7.75
2018-02-07T11:43:57.359Z,7.95
2018-02-07T11:46:25.817Z,7.67
2018-02-07T11:48:54.319Z,7.69
2018-02-07T11:51:22.783Z,7.91
2018-02-07T11:53:51.282Z,8.07
2018-02-07T11:56:19.796Z,7.92
2018-02-07T11:58:48.293Z,7.70
2018-02-07T12:01:16.761Z,7.92
2018-02-07T12:03:45.266Z,8.14
2018-02-07T12:06:13.728Z,8.02
2018-02-07T12:08:42.194Z,8.03
2018-02-07T12:11:10.694Z,8.15
2018-02-07T12:13:39.213Z,8.26
2018-02-07T12:16:07.678Z,7.94
2018-02-07T12:18:36.185Z,8.02
2018-02-07T12:21:04.703Z,7.82
2018-02-07T12:23:33.167Z,7.88
2018-02-07T12:26:01.669Z,8.14
2018-02-07T12:28:30.137Z,8.02
2018-02-07T12:30:58.633Z,8.17
2018-02-07T12:33:27.109Z,7.95
2018-02-07T12:35:55.614Z,8.17
2018-02-07T12:38:24.080Z,8.18
2018-02-07T12:40:53.502Z,7.99
2018-02-07T12:43:21.986Z,8.08
2018-02-07T12:45:50.458Z,8.05
2018-02-07T12:48:18.958Z,8.14
2018-02-07T12:50:47.450Z,8.00
2018-02-07T12:53:15.977Z,8.17
2018-02-07T12:55:44.461Z,8.29
2018-02-07T12:58:12.977Z,8.23
2018-02-07T13:00:41.452Z,8.01
2018-02-07T13:03:09.962Z,8.06
2018-02-07T13:05:38.447Z,8.04
2018-02-07T13:08:06.943Z,8.20
2018-02-07T13:10:35.463Z,8.20
2018-02-07T13:13:03.973Z,8.37
2018-02-07T13:15:32.473Z,8.38
2018-02-07T13:18:00.939Z,8.42
2018-02-07T13:20:29.445Z,8.38
2018-02-07T13:22:57.912Z,8.41
2018-02-07T13:25:26.421Z,8.09
2018-02-07T13:27:54.875Z,8.09
2018-02-07T13:30:23.380Z,8.12
2018-02-07T13:32:51.849Z,7.94
2018-02-07T13:35:20.362Z,7.83
2018-02-07T13:37:48.843Z,7.75
2018-02-07T13:40:17.362Z,8.05
2018-02-07T13:42:45.838Z,8.08
2018-02-07T13:45:14.394Z,8.03
2018-02-07T13:47:42.858Z,8.02
2018-02-07T13:50:11.407Z,8.07
2018-02-07T13:52:39.915Z,8.02
2018-02-07T13:55:08.421Z,7.97
2018-02-07T13:57:36.918Z,7.65
2018-02-07T14:00:05.484Z,7.98
2018-02-07T14:02:34.002Z,7.96
2018-02-07T14:05:02.479Z,7.89
2018-02-07T14:07:30.996Z,7.94
2018-02-07T14:09:59.475Z,8.02
2018-02-07T14:12:27.981Z,8.16
2018-02-07T14:14:56.441Z,8.16
2018-02-07T14:17:24.946Z,8.19
2018-02-07T14:19:53.429Z,8.23
2018-02-07T14:22:21.888Z,8.26
2018-02-07T14:24:50.390Z,8.30
2018-02-07T14:27:18.861Z,8.39
2018-02-07T14:29:47.357Z,8.29
2018-02-07T14:32:15.807Z,8.42
2018-02-07T14:34:44.310Z,8.42
2018-02-07T14:37:12.798Z,8.44
2018-02-07T14:39:41.314Z,8.46
2018-02-07T14:42:09.785Z,8.48
2018-02-07T14:44:38.313Z,8.34
2018-02-07T14:47:06.788Z,8.31
2018-02-07T14:49:35.245Z,8.24
2018-02-07T14:52:03.718Z,8.31
2018-02-07T14:54:33.006Z,8.08
2018-02-07T14:57:01.515Z,7.94
2018-02-07T14:59:29.973Z,8.14
2018-02-07T15:01:58.478Z,8.18
2018-02-07T15:04:26.993Z,8.10
2018-02-07T15:06:55.505Z,8.15
2018-02-07T15:09:23.999Z,8.19
2018-02-07T15:11:52.489Z,7.99
2018-02-07T15:14:21.040Z,8.04
2018-02-07T15:16:49.560Z,8.04
2018-02-07T15:19:18.061Z,7.87
2018-02-07T15:21:46.536Z,7.98
2018-02-07T15:24:15.049Z,8.08
2018-02-07T15:26:43.578Z,8.02
2018-02-07T15:29:12.085Z,7.84
2018-02-07T15:31:40.617Z,8.04
2018-02-07T15:34:09.115Z,7.93
2018-02-07T15:36:37.591Z,7.95
2018-02-07T15:39:06.107Z,7.81
2018-02-07T15:41:34.590Z,7.96
2018-02-07T15:44:03.053Z,7.76
2018-02-07T15:46:31.597Z,7.63
2018-02-07T15:49:00.054Z,7.49
2018-02-07T15:51:28.558Z,7.45
2018-02-07T15:53:57.147Z,7.44
2018-02-07T15:56:25.614Z,7.63
2018-02-07T15:58:54.111Z,7.57
2018-02-07T16:01:22.634Z,7.61
2018-02-07T16:03:51.146Z,7.60
2018-02-07T16:06:19.610Z,7.41
2018-02-07T16:08:48.129Z,7.30
2018-02-07T16:11:16.634Z,7.52
2018-02-07T16:13:45.138Z,7.64
2018-02-07T16:16:13.610Z,7.39
2018-02-07T16:18:42.110Z,7.56
2018-02-07T16:21:10.617Z,7.53
2018-02-07T16:23:39.117Z,7.27
2018-02-07T16:26:07.581Z,7.20
2018-02-07T16:28:36.085Z,7.23
2018-02-07T16:31:04.589Z,7.27
2018-02-07T16:33:33.074Z,7.33
2018-02-07T16:36:01.531Z,7.30
2018-02-07T16:38:30.020Z,7.14
2018-02-07T16:40:58.485Z,6.95
2018-02-07T16:43:26.969Z,7.13
2018-02-07T16:45:55.469Z,7.12
2018-02-07T16:48:24.006Z,7.14
2018-02-07T16:50:52.506Z,6.98
2018-02-07T16:53:21.011Z,6.96
2018-02-07T16:55:49.520Z,6.95
2018-02-07T16:58:17.984Z,6.96
2018-02-07T17:00:46.448Z,6.93
2018-02-07T17:03:14.941Z,6.97
2018-02-07T17:05:43.467Z,6.84
2018-02-07T17:08:11.985Z,6.60
2018-02-07T17:10:40.475Z,6.77
2018-02-07T17:13:08.941Z,6.75
2018-02-07T17:15:37.443Z,6.81
2018-02-07T17:18:05.933Z,6.90
2018-02-07T17:20:34.403Z,6.86
2018-02-07T17:23:02.911Z,6.80
2018-02-07T17:25:31.407Z,6.82
2018-02-07T17:27:59.910Z,6.86
2018-02-07T17:30:28.369Z,6.76
2018-02-07T17:32:56.915Z,6.75
2018-02-07T17:35:25.797Z,6.77
2018-02-07T17:37:54.254Z,6.74
2018-02-07T17:40:22.726Z,6.85
2018-02-07T17:42:51.230Z,6.82
2018-02-07T17:45:19.698Z,6.80
2018-02-07T17:47:48.209Z,6.69
2018-02-07T17:50:16.709Z,6.79
2018-02-07T17:52:45.209Z,6.90
2018-02-07T17:55:13.713Z,6.90
2018-02-07T17:57:42.177Z,6.90
2018-02-07T18:00:10.700Z,6.72
2018-02-07T18:02:39.232Z,6.84
2018-02-07T18:05:07.757Z,6.80
2018-02-07T18:07:36.253Z,6.70
2018-02-07T18:10:04.782Z,6.73
2018-02-07T18:12:33.261Z,6.46
2018-02-07T18:15:01.741Z,6.64
2018-02-07T18:17:30.245Z,6.79
2018-02-07T18:19:58.705Z,6.68
2018-02-07T18:22:27.186Z,6.61
2018-02-07T18:24:55.690Z,6.50
2018-02-07T18:27:24.150Z,6.40
2018-02-07T18:29:52.609Z,6.41
2018-02-07T18:32:21.108Z,6.52
2018-02-07T18:34:49.645Z,6.65
2018-02-07T18:37:18.150Z,6.78
2018-02-07T18:39:46.654Z,6.83
2018-02-07T18:42:15.180Z,6.80
2018-02-07T18:44:43.644Z,6.56
2018-02-07T18:47:12.110Z,6.74
2018-02-07T18:49:40.614Z,6.85
2018-02-07T18:52:09.077Z,6.94
2018-02-07T18:54:37.537Z,6.97
2018-02-07T18:57:06.041Z,6.87
2018-02-07T18:59:34.518Z,6.97
2018-02-07T19:02:02.985Z,6.84
2018-02-07T19:04:31.499Z,6.85
2018-02-07T19:06:59.986Z,6.96
2018-02-07T19:09:28.661Z,6.96
2018-02-07T19:11:57.188Z,6.71
2018-02-07T19:14:25.687Z,6.83
2018-02-07T19:16:54.182Z,6.97
2018-02-07T19:19:22.681Z,6.79
2018-02-07T19:21:51.208Z,6.79
2018-02-07T19:24:19.670Z,6.66
2018-02-07T19:26:48.133Z,6.84
2018-02-07T19:29:16.632Z,6.90
2018-02-07T19:31:45.086Z,6.89
2018-02-07T19:34:13.569Z,7.01
2018-02-07T19:36:42.025Z,6.92
2018-02-07T19:39:10.517Z,7.00
2018-02-07T19:41:39.009Z,7.00
2018-02-07T19:44:07.528Z,7.00
2018-02-07T19:46:36.036Z,6.76
2018-02-07T19:49:04.529Z,6.93
2018-02-07T19:51:32.990Z,6.92
2018-02-07T19:54:01.528Z,6.74
2018-02-07T19:56:30.016Z,6.79
2018-02-07T19:58:58.481Z,6.81
2018-02-07T20:01:26.969Z,6.91
2018-02-07T20:03:55.457Z,6.97
2018-02-07T20:06:23.957Z,7.08
2018-02-07T20:08:52.413Z,7.10
2018-02-07T20:11:20.882Z,6.75
2018-02-07T20:13:49.386Z,6.87
2018-02-07T20:16:17.898Z,6.91
2018-02-07T20:18:46.389Z,7.07
2018-02-07T20:21:14.853Z,7.09
2018-02-07T20:23:43.365Z,7.16
2018-02-07T20:26:11.831Z,7.07
2018-02-07T20:28:40.340Z,7.04
2018-02-07T20:31:08.802Z,7.11
2018-02-07T20:33:37.300Z,7.04
2018-02-07T20:36:05.803Z,7.04
2018-02-07T20:38:34.312Z,6.95
2018-02-07T20:41:02.773Z,6.96
2018-02-07T20:43:31.277Z,7.07
2018-02-07T20:45:59.729Z,7.13
2018-02-07T20:48:28.222Z,7.15
2018-02-07T20:50:56.721Z,7.03
2018-02-07T20:53:25.181Z,7.15
2018-02-07T20:55:53.686Z,7.18
2018-02-07T20:58:22.155Z,7.17
2018-02-07T21:00:50.653Z,7.18
2018-02-07T21:03:19.146Z,7.23
2018-02-07T21:05:47.649Z,7.05
2018-02-07T21:08:16.138Z,6.97
2018-02-07T21:10:44.633Z,6.95
2018-02-07T21:13:13.121Z,6.88
2018-02-07T21:15:41.589Z,7.00
2018-02-07T21:18:10.122Z,7.03
2018-02-07T21:20:38.579Z,7.08
2018-02-07T21:23:07.069Z,7.05
2018-02-07T21:25:35.511Z,6.67
2018-02-07T21:28:04.031Z,6.71
2018-02-07T21:30:32.507Z,6.68
2018-02-07T21:33:01.013Z,6.67
2018-02-07T21:35:29.479Z,6.69
2018-02-07T21:37:57.957Z,6.78
2018-02-07T21:40:26.841Z,6.82
2018-02-07T21:42:55.310Z,6.87
2018-02-07T21:45:23.821Z,6.82
2018-02-07T21:47:52.366Z,6.89
2018-02-07T21:50:20.817Z,6.89
2018-02-07T21:52:49.277Z,6.98
2018-02-07T21:55:17.760Z,6.99
2018-02-07T21:57:46.265Z,7.06
2018-02-07T22:00:14.770Z,6.98
2018-02-07T22:02:43.219Z,6.94
2018-02-07T22:05:11.723Z,6.54
2018-02-07T22:07:40.190Z,6.38
2018-02-07T22:10:08.708Z,6.58
2018-02-07T22:12:37.180Z,6.60
2018-02-07T22:15:05.679Z,6.58
2018-02-07T22:17:34.170Z,6.74
2018-02-07T22:20:02.634Z,6.47
2018-02-07T22:22:31.165Z,6.64
2018-02-07T22:24:59.673Z,6.69
2018-02-07T22:27:28.155Z,6.76
2018-02-07T22:29:56.664Z,6.41
2018-02-07T22:32:25.169Z,6.47
2018-02-07T22:34:53.629Z,6.37
2018-02-07T22:37:22.144Z,6.43
2018-02-07T22:39:50.602Z,6.48
2018-02-07T22:42:19.067Z,6.56
2018-02-07T22:44:47.579Z,6.62
2018-02-07T22:47:16.086Z,6.70
2018-02-07T22:49:44.563Z,6.76
2018-02-07T22:52:13.025Z,6.67
2018-02-07T22:54:41.547Z,6.37
2018-02-07T22:57:10.077Z,6.30
2018-02-07T22:59:38.614Z,6.39
2018-02-07T23:02:07.077Z,6.47
2018-02-07T23:04:35.602Z,6.60
2018-02-07T23:07:04.061Z,6.64
2018-02-07T23:09:32.554Z,6.64
2018-02-07T23:12:01.021Z,6.40
2018-02-07T23:14:29.517Z,6.49
2018-02-07T23:16:58.005Z,6.63
2018-02-07T23:19:26.461Z,6.61
2018-02-07T23:21:54.949Z,6.64
2018-02-07T23:24:23.440Z,6.65
2018-02-07T23:26:51.989Z,6.24
2018-02-07T23:29:20.444Z,6.27
2018-02-07T23:31:48.909Z,6.38
2018-02-07T23:34:17.412Z,6.57
2018-02-07T23:36:45.865Z,6.58
2018-02-07T23:39:14.358Z,6.66
2018-02-07T23:41:42.853Z,6.48
2018-02-07T23:44:11.348Z,6.60
2018-02-07T23:46:39.817Z,6.68
2018-02-07T23:49:08.313Z,6.62
2018-02-07T23:51:36.751Z,6.64
2018-02-07T23:54:05.241Z,6.72
2018-02-07T23:56:33.738Z,6.64
2018-02-07T23:59:02.238Z,6.69
